sensor_id;sensor_type;location;lat;lon;timestamp;P1;durP1;ratioP1;P2;durP2;ratioP2
18881;SDS011;9573;50.948;11.600;2023-07-16T00:00:24;8.50;;;3.60;;
18881;SDS011;9573;50.948;11.600;2023-07-16T00:02:56;10.70;;;4.10;;
18881;SDS011;9573;50.948;11.600;2023-07-16T00:05:26;13.33;;;3.90;;
18881;SDS011;9573;50.948;11.600;2023-07-16T00:07:53;10.93;;;3.87;;
18881;SDS011;9573;50.948;11.600;2023-07-16T00:10:21;13.70;;;4.33;;
18881;SDS011;9573;50.948;11.600;2023-07-16T00:12:48;15.57;;;4.30;;
18881;SDS011;9573;50.948;11.600;2023-07-16T00:15:16;13.50;;;4.20;;
18881;SDS011;9573;50.948;11.600;2023-07-16T00:17:43;12.43;;;4.37;;
18881;SDS011;9573;50.948;11.600;2023-07-16T00:20:12;10.77;;;4.40;;
18881;SDS011;9573;50.948;11.600;2023-07-16T00:22:41;14.27;;;3.90;;
18881;SDS011;9573;50.948;11.600;2023-07-16T00:25:08;13.87;;;4.30;;
18881;SDS011;9573;50.948;11.600;2023-07-16T00:27:38;16.37;;;4.60;;
18881;SDS011;9573;50.948;11.600;2023-07-16T00:30:06;12.37;;;4.00;;
18881;SDS011;9573;50.948;11.600;2023-07-16T00:32:34;12.43;;;4.17;;
18881;SDS011;9573;50.948;11.600;2023-07-16T00:35:01;11.07;;;4.07;;
18881;SDS011;9573;50.948;11.600;2023-07-16T00:37:30;14.10;;;4.03;;
18881;SDS011;9573;50.948;11.600;2023-07-16T00:39:57;10.20;;;4.07;;
18881;SDS011;9573;50.948;11.600;2023-07-16T00:42:24;12.30;;;4.20;;
18881;SDS011;9573;50.948;11.600;2023-07-16T00:44:51;11.43;;;4.30;;
18881;SDS011;9573;50.948;11.600;2023-07-16T00:47:18;13.87;;;4.43;;
18881;SDS011;9573;50.948;11.600;2023-07-16T00:49:45;10.67;;;4.43;;
18881;SDS011;9573;50.948;11.600;2023-07-16T00:52:14;13.83;;;4.37;;
18881;SDS011;9573;50.948;11.600;2023-07-16T00:54:46;15.17;;;5.07;;
18881;SDS011;9573;50.948;11.600;2023-07-16T00:57:14;14.80;;;4.80;;
18881;SDS011;9573;50.948;11.600;2023-07-16T00:59:42;9.63;;;4.40;;
18881;SDS011;9573;50.948;11.600;2023-07-16T01:02:09;9.27;;;4.50;;
18881;SDS011;9573;50.948;11.600;2023-07-16T01:04:36;17.43;;;4.80;;
18881;SDS011;9573;50.948;11.600;2023-07-16T01:07:04;11.00;;;4.70;;
18881;SDS011;9573;50.948;11.600;2023-07-16T01:09:34;14.80;;;4.80;;
18881;SDS011;9573;50.948;11.600;2023-07-16T01:12:09;12.40;;;4.70;;
18881;SDS011;9573;50.948;11.600;2023-07-16T01:14:37;11.23;;;4.90;;
18881;SDS011;9573;50.948;11.600;2023-07-16T01:17:06;12.57;;;5.20;;
18881;SDS011;9573;50.948;11.600;2023-07-16T01:19:33;9.97;;;4.37;;
18881;SDS011;9573;50.948;11.600;2023-07-16T01:22:03;13.30;;;4.50;;
18881;SDS011;9573;50.948;11.600;2023-07-16T01:24:55;10.27;;;4.50;;
18881;SDS011;9573;50.948;11.600;2023-07-16T01:27:54;13.07;;;4.80;;
18881;SDS011;9573;50.948;11.600;2023-07-16T01:30:38;11.03;;;4.47;;
18881;SDS011;9573;50.948;11.600;2023-07-16T01:33:07;14.07;;;4.67;;
18881;SDS011;9573;50.948;11.600;2023-07-16T01:35:36;12.13;;;4.40;;
18881;SDS011;9573;50.948;11.600;2023-07-16T01:38:05;7.87;;;4.00;;
18881;SDS011;9573;50.948;11.600;2023-07-16T01:40:32;10.97;;;4.20;;
18881;SDS011;9573;50.948;11.600;2023-07-16T01:42:59;10.60;;;4.30;;
18881;SDS011;9573;50.948;11.600;2023-07-16T01:45:26;9.87;;;4.40;;
18881;SDS011;9573;50.948;11.600;2023-07-16T01:47:59;11.90;;;4.67;;
18881;SDS011;9573;50.948;11.600;2023-07-16T01:50:39;10.03;;;4.00;;
18881;SDS011;9573;50.948;11.600;2023-07-16T01:53:07;12.00;;;4.47;;
18881;SDS011;9573;50.948;11.600;2023-07-16T01:55:34;9.73;;;4.50;;
18881;SDS011;9573;50.948;11.600;2023-07-16T01:58:01;11.23;;;3.90;;
18881;SDS011;9573;50.948;11.600;2023-07-16T02:00:28;11.20;;;4.63;;
18881;SDS011;9573;50.948;11.600;2023-07-16T02:02:56;11.20;;;4.20;;
18881;SDS011;9573;50.948;11.600;2023-07-16T02:05:23;11.93;;;4.40;;
18881;SDS011;9573;50.948;11.600;2023-07-16T02:07:50;13.57;;;4.47;;
18881;SDS011;9573;50.948;11.600;2023-07-16T02:10:18;10.10;;;4.50;;
18881;SDS011;9573;50.948;11.600;2023-07-16T02:12:45;11.80;;;4.13;;
18881;SDS011;9573;50.948;11.600;2023-07-16T02:15:12;9.20;;;4.40;;
18881;SDS011;9573;50.948;11.600;2023-07-16T02:17:39;9.23;;;3.73;;
18881;SDS011;9573;50.948;11.600;2023-07-16T02:20:08;10.13;;;4.00;;
18881;SDS011;9573;50.948;11.600;2023-07-16T02:22:36;7.87;;;3.70;;
18881;SDS011;9573;50.948;11.600;2023-07-16T02:25:04;9.03;;;4.23;;
18881;SDS011;9573;50.948;11.600;2023-07-16T02:27:32;9.13;;;3.93;;
18881;SDS011;9573;50.948;11.600;2023-07-16T02:29:59;8.20;;;3.70;;
18881;SDS011;9573;50.948;11.600;2023-07-16T02:32:26;10.57;;;4.20;;
18881;SDS011;9573;50.948;11.600;2023-07-16T02:34:53;9.83;;;3.87;;
18881;SDS011;9573;50.948;11.600;2023-07-16T02:37:21;9.13;;;4.00;;
18881;SDS011;9573;50.948;11.600;2023-07-16T02:39:48;9.33;;;3.90;;
18881;SDS011;9573;50.948;11.600;2023-07-16T02:42:15;9.73;;;4.30;;
18881;SDS011;9573;50.948;11.600;2023-07-16T02:44:42;12.10;;;4.23;;
18881;SDS011;9573;50.948;11.600;2023-07-16T02:47:10;8.27;;;4.13;;
18881;SDS011;9573;50.948;11.600;2023-07-16T02:49:38;8.57;;;3.83;;
18881;SDS011;9573;50.948;11.600;2023-07-16T02:52:05;8.87;;;3.63;;
18881;SDS011;9573;50.948;11.600;2023-07-16T02:54:36;7.17;;;3.63;;
18881;SDS011;9573;50.948;11.600;2023-07-16T02:57:03;8.40;;;3.90;;
18881;SDS011;9573;50.948;11.600;2023-07-16T02:59:31;8.93;;;3.30;;
18881;SDS011;9573;50.948;11.600;2023-07-16T03:01:58;9.53;;;3.70;;
18881;SDS011;9573;50.948;11.600;2023-07-16T03:04:25;6.77;;;3.60;;
18881;SDS011;9573;50.948;11.600;2023-07-16T03:06:52;7.00;;;3.50;;
18881;SDS011;9573;50.948;11.600;2023-07-16T03:09:19;6.90;;;3.33;;
18881;SDS011;9573;50.948;11.600;2023-07-16T03:11:48;5.73;;;3.47;;
18881;SDS011;9573;50.948;11.600;2023-07-16T03:14:15;6.30;;;2.97;;
18881;SDS011;9573;50.948;11.600;2023-07-16T03:16:42;7.90;;;3.00;;
18881;SDS011;9573;50.948;11.600;2023-07-16T03:19:09;6.43;;;3.30;;
18881;SDS011;9573;50.948;11.600;2023-07-16T03:21:36;7.20;;;3.37;;
18881;SDS011;9573;50.948;11.600;2023-07-16T03:24:03;8.30;;;3.43;;
18881;SDS011;9573;50.948;11.600;2023-07-16T03:26:31;6.07;;;3.50;;
18881;SDS011;9573;50.948;11.600;2023-07-16T03:28:59;7.77;;;3.30;;
18881;SDS011;9573;50.948;11.600;2023-07-16T03:31:26;6.63;;;3.30;;
18881;SDS011;9573;50.948;11.600;2023-07-16T03:33:53;10.50;;;3.33;;
18881;SDS011;9573;50.948;11.600;2023-07-16T03:36:20;8.20;;;3.47;;
18881;SDS011;9573;50.948;11.600;2023-07-16T03:38:48;7.63;;;3.43;;
18881;SDS011;9573;50.948;11.600;2023-07-16T03:41:15;5.87;;;3.40;;
18881;SDS011;9573;50.948;11.600;2023-07-16T03:43:42;8.87;;;3.50;;
18881;SDS011;9573;50.948;11.600;2023-07-16T03:46:10;7.33;;;3.30;;
18881;SDS011;9573;50.948;11.600;2023-07-16T03:48:37;5.97;;;3.50;;
18881;SDS011;9573;50.948;11.600;2023-07-16T03:51:04;7.43;;;3.20;;
18881;SDS011;9573;50.948;11.600;2023-07-16T03:53:31;6.17;;;3.10;;
18881;SDS011;9573;50.948;11.600;2023-07-16T03:55:58;7.20;;;2.80;;
18881;SDS011;9573;50.948;11.600;2023-07-16T03:58:25;8.30;;;3.27;;
18881;SDS011;9573;50.948;11.600;2023-07-16T04:00:54;5.53;;;2.90;;
18881;SDS011;9573;50.948;11.600;2023-07-16T04:03:22;8.17;;;3.20;;
18881;SDS011;9573;50.948;11.600;2023-07-16T04:05:50;5.53;;;2.90;;
18881;SDS011;9573;50.948;11.600;2023-07-16T04:08:17;4.73;;;2.63;;
18881;SDS011;9573;50.948;11.600;2023-07-16T04:10:44;6.33;;;2.90;;
18881;SDS011;9573;50.948;11.600;2023-07-16T04:13:11;4.33;;;2.60;;
18881;SDS011;9573;50.948;11.600;2023-07-16T04:15:38;6.40;;;2.60;;
18881;SDS011;9573;50.948;11.600;2023-07-16T04:18:05;5.07;;;2.70;;
18881;SDS011;9573;50.948;11.600;2023-07-16T04:20:33;4.70;;;2.80;;
18881;SDS011;9573;50.948;11.600;2023-07-16T04:23:00;6.40;;;2.73;;
18881;SDS011;9573;50.948;11.600;2023-07-16T04:25:27;3.87;;;2.40;;
18881;SDS011;9573;50.948;11.600;2023-07-16T04:27:55;4.90;;;2.50;;
18881;SDS011;9573;50.948;11.600;2023-07-16T04:30:22;7.63;;;2.90;;
18881;SDS011;9573;50.948;11.600;2023-07-16T04:32:50;5.37;;;2.53;;
18881;SDS011;9573;50.948;11.600;2023-07-16T04:35:17;6.73;;;2.70;;
18881;SDS011;9573;50.948;11.600;2023-07-16T04:37:45;4.13;;;2.50;;
18881;SDS011;9573;50.948;11.600;2023-07-16T04:40:13;6.17;;;2.57;;
18881;SDS011;9573;50.948;11.600;2023-07-16T04:42:40;3.50;;;2.40;;
18881;SDS011;9573;50.948;11.600;2023-07-16T04:45:07;7.27;;;2.77;;
18881;SDS011;9573;50.948;11.600;2023-07-16T04:47:34;6.10;;;2.80;;
18881;SDS011;9573;50.948;11.600;2023-07-16T04:50:01;4.23;;;2.70;;
18881;SDS011;9573;50.948;11.600;2023-07-16T04:52:29;4.87;;;2.60;;
18881;SDS011;9573;50.948;11.600;2023-07-16T04:54:57;5.27;;;2.50;;
18881;SDS011;9573;50.948;11.600;2023-07-16T04:57:24;6.00;;;2.43;;
18881;SDS011;9573;50.948;11.600;2023-07-16T04:59:51;5.53;;;2.70;;
18881;SDS011;9573;50.948;11.600;2023-07-16T05:02:20;17.83;;;6.53;;
18881;SDS011;9573;50.948;11.600;2023-07-16T05:04:47;4.87;;;2.63;;
18881;SDS011;9573;50.948;11.600;2023-07-16T05:07:15;9.27;;;3.17;;
18881;SDS011;9573;50.948;11.600;2023-07-16T05:09:42;11.33;;;3.80;;
18881;SDS011;9573;50.948;11.600;2023-07-16T05:12:11;6.70;;;3.13;;
18881;SDS011;9573;50.948;11.600;2023-07-16T05:14:42;5.27;;;2.60;;
18881;SDS011;9573;50.948;11.600;2023-07-16T05:17:11;4.43;;;2.63;;
18881;SDS011;9573;50.948;11.600;2023-07-16T05:19:38;6.30;;;2.37;;
18881;SDS011;9573;50.948;11.600;2023-07-16T05:22:05;6.23;;;2.50;;
18881;SDS011;9573;50.948;11.600;2023-07-16T05:24:33;4.33;;;2.13;;
18881;SDS011;9573;50.948;11.600;2023-07-16T05:27:00;4.60;;;2.00;;
18881;SDS011;9573;50.948;11.600;2023-07-16T05:29:29;6.63;;;2.50;;
18881;SDS011;9573;50.948;11.600;2023-07-16T05:31:56;7.00;;;2.30;;
18881;SDS011;9573;50.948;11.600;2023-07-16T05:34:23;3.85;;;2.35;;
18881;SDS011;9573;50.948;11.600;2023-07-16T05:36:52;3.15;;;2.10;;
18881;SDS011;9573;50.948;11.600;2023-07-16T05:39:20;3.95;;;2.22;;
18881;SDS011;9573;50.948;11.600;2023-07-16T05:41:47;7.78;;;2.95;;
18881;SDS011;9573;50.948;11.600;2023-07-16T05:44:14;5.55;;;2.42;;
18881;SDS011;9573;50.948;11.600;2023-07-16T05:46:43;4.03;;;2.20;;
18881;SDS011;9573;50.948;11.600;2023-07-16T05:49:10;5.00;;;2.35;;
18881;SDS011;9573;50.948;11.600;2023-07-16T05:51:37;4.95;;;2.50;;
18881;SDS011;9573;50.948;11.600;2023-07-16T05:54:04;5.63;;;2.28;;
18881;SDS011;9573;50.948;11.600;2023-07-16T05:56:32;6.28;;;2.50;;
18881;SDS011;9573;50.948;11.600;2023-07-16T05:58:59;6.82;;;2.35;;
18881;SDS011;9573;50.948;11.600;2023-07-16T06:01:26;9.05;;;2.40;;
18881;SDS011;9573;50.948;11.600;2023-07-16T06:03:54;6.82;;;2.30;;
18881;SDS011;9573;50.948;11.600;2023-07-16T06:06:21;4.85;;;2.08;;
18881;SDS011;9573;50.948;11.600;2023-07-16T06:08:48;2.78;;;2.03;;
18881;SDS011;9573;50.948;11.600;2023-07-16T06:11:16;6.72;;;2.45;;
18881;SDS011;9573;50.948;11.600;2023-07-16T06:13:43;3.50;;;2.35;;
18881;SDS011;9573;50.948;11.600;2023-07-16T06:16:10;4.55;;;2.17;;
18881;SDS011;9573;50.948;11.600;2023-07-16T06:18:37;4.47;;;2.20;;
18881;SDS011;9573;50.948;11.600;2023-07-16T06:21:06;7.57;;;2.45;;
18881;SDS011;9573;50.948;11.600;2023-07-16T06:23:33;2.78;;;1.92;;
18881;SDS011;9573;50.948;11.600;2023-07-16T06:26:00;6.30;;;2.35;;
18881;SDS011;9573;50.948;11.600;2023-07-16T06:28:28;5.50;;;2.17;;
18881;SDS011;9573;50.948;11.600;2023-07-16T06:30:55;6.55;;;1.98;;
18881;SDS011;9573;50.948;11.600;2023-07-16T06:33:22;6.93;;;2.50;;
18881;SDS011;9573;50.948;11.600;2023-07-16T06:35:50;4.35;;;2.20;;
18881;SDS011;9573;50.948;11.600;2023-07-16T06:38:19;4.22;;;2.13;;
18881;SDS011;9573;50.948;11.600;2023-07-16T06:40:46;6.65;;;2.50;;
18881;SDS011;9573;50.948;11.600;2023-07-16T06:43:14;5.75;;;2.30;;
18881;SDS011;9573;50.948;11.600;2023-07-16T06:45:41;10.98;;;2.50;;
18881;SDS011;9573;50.948;11.600;2023-07-16T06:48:09;8.27;;;2.38;;
18881;SDS011;9573;50.948;11.600;2023-07-16T06:50:36;5.18;;;2.55;;
18881;SDS011;9573;50.948;11.600;2023-07-16T06:53:03;4.90;;;1.88;;
18881;SDS011;9573;50.948;11.600;2023-07-16T06:55:35;8.45;;;2.45;;
18881;SDS011;9573;50.948;11.600;2023-07-16T06:58:02;3.65;;;2.08;;
18881;SDS011;9573;50.948;11.600;2023-07-16T07:00:30;6.82;;;2.42;;
18881;SDS011;9573;50.948;11.600;2023-07-16T07:02:58;4.68;;;2.30;;
18881;SDS011;9573;50.948;11.600;2023-07-16T07:05:25;8.48;;;2.00;;
18881;SDS011;9573;50.948;11.600;2023-07-16T07:07:54;7.43;;;2.13;;
18881;SDS011;9573;50.948;11.600;2023-07-16T07:10:21;11.23;;;2.30;;
18881;SDS011;9573;50.948;11.600;2023-07-16T07:12:53;7.07;;;2.20;;
18881;SDS011;9573;50.948;11.600;2023-07-16T07:15:20;6.28;;;2.35;;
18881;SDS011;9573;50.948;11.600;2023-07-16T07:17:47;8.82;;;2.50;;
18881;SDS011;9573;50.948;11.600;2023-07-16T07:20:17;8.02;;;2.40;;
18881;SDS011;9573;50.948;11.600;2023-07-16T07:22:44;6.15;;;2.28;;
18881;SDS011;9573;50.948;11.600;2023-07-16T07:25:14;5.22;;;2.13;;
18881;SDS011;9573;50.948;11.600;2023-07-16T07:27:43;7.75;;;2.75;;
18881;SDS011;9573;50.948;11.600;2023-07-16T07:30:12;4.95;;;2.00;;
18881;SDS011;9573;50.948;11.600;2023-07-16T07:32:39;8.30;;;2.50;;
18881;SDS011;9573;50.948;11.600;2023-07-16T07:35:07;8.32;;;2.30;;
18881;SDS011;9573;50.948;11.600;2023-07-16T07:37:34;8.73;;;2.20;;
18881;SDS011;9573;50.948;11.600;2023-07-16T07:40:02;8.75;;;2.40;;
18881;SDS011;9573;50.948;11.600;2023-07-16T07:42:30;8.68;;;2.90;;
18881;SDS011;9573;50.948;11.600;2023-07-16T07:44:57;6.60;;;2.33;;
18881;SDS011;9573;50.948;11.600;2023-07-16T07:47:26;6.68;;;2.05;;
18881;SDS011;9573;50.948;11.600;2023-07-16T07:49:53;7.45;;;2.45;;
18881;SDS011;9573;50.948;11.600;2023-07-16T07:52:21;5.68;;;2.10;;
18881;SDS011;9573;50.948;11.600;2023-07-16T07:54:51;7.53;;;2.17;;
18881;SDS011;9573;50.948;11.600;2023-07-16T07:57:19;6.57;;;2.28;;
18881;SDS011;9573;50.948;11.600;2023-07-16T07:59:46;10.48;;;3.13;;
18881;SDS011;9573;50.948;11.600;2023-07-16T08:02:20;6.82;;;2.25;;
18881;SDS011;9573;50.948;11.600;2023-07-16T08:04:50;6.90;;;2.50;;
18881;SDS011;9573;50.948;11.600;2023-07-16T08:07:17;8.88;;;2.22;;
18881;SDS011;9573;50.948;11.600;2023-07-16T08:09:51;6.35;;;2.38;;
18881;SDS011;9573;50.948;11.600;2023-07-16T08:14:47;5.70;;;2.08;;
18881;SDS011;9573;50.948;11.600;2023-07-16T08:17:14;6.82;;;2.50;;
18881;SDS011;9573;50.948;11.600;2023-07-16T08:19:46;3.53;;;1.92;;
18881;SDS011;9573;50.948;11.600;2023-07-16T08:22:17;6.85;;;2.08;;
18881;SDS011;9573;50.948;11.600;2023-07-16T08:24:44;6.03;;;2.30;;
18881;SDS011;9573;50.948;11.600;2023-07-16T08:27:11;10.00;;;2.63;;
18881;SDS011;9573;50.948;11.600;2023-07-16T08:29:39;4.72;;;2.40;;
18881;SDS011;9573;50.948;11.600;2023-07-16T08:32:06;6.40;;;2.53;;
18881;SDS011;9573;50.948;11.600;2023-07-16T08:34:34;6.45;;;2.42;;
18881;SDS011;9573;50.948;11.600;2023-07-16T08:37:01;7.68;;;2.25;;
18881;SDS011;9573;50.948;11.600;2023-07-16T08:39:30;9.90;;;2.63;;
18881;SDS011;9573;50.948;11.600;2023-07-16T08:41:57;7.32;;;2.63;;
18881;SDS011;9573;50.948;11.600;2023-07-16T08:44:25;7.22;;;2.10;;
18881;SDS011;9573;50.948;11.600;2023-07-16T08:46:53;7.45;;;2.20;;
18881;SDS011;9573;50.948;11.600;2023-07-16T08:49:24;9.93;;;2.80;;
18881;SDS011;9573;50.948;11.600;2023-07-16T08:51:55;6.30;;;2.15;;
18881;SDS011;9573;50.948;11.600;2023-07-16T08:54:22;6.65;;;2.17;;
18881;SDS011;9573;50.948;11.600;2023-07-16T08:56:52;4.78;;;2.05;;
18881;SDS011;9573;50.948;11.600;2023-07-16T08:59:20;6.70;;;2.42;;
18881;SDS011;9573;50.948;11.600;2023-07-16T09:01:47;6.43;;;2.25;;
18881;SDS011;9573;50.948;11.600;2023-07-16T09:04:15;8.35;;;2.30;;
18881;SDS011;9573;50.948;11.600;2023-07-16T09:06:42;8.15;;;2.50;;
18881;SDS011;9573;50.948;11.600;2023-07-16T09:09:10;6.43;;;2.20;;
18881;SDS011;9573;50.948;11.600;2023-07-16T09:11:47;6.43;;;2.10;;
18881;SDS011;9573;50.948;11.600;2023-07-16T09:14:17;6.53;;;2.08;;
18881;SDS011;9573;50.948;11.600;2023-07-16T09:16:50;5.13;;;2.10;;
18881;SDS011;9573;50.948;11.600;2023-07-16T09:19:18;7.57;;;2.05;;
18881;SDS011;9573;50.948;11.600;2023-07-16T09:21:46;6.40;;;2.15;;
18881;SDS011;9573;50.948;11.600;2023-07-16T09:24:13;5.88;;;2.17;;
18881;SDS011;9573;50.948;11.600;2023-07-16T09:26:47;6.78;;;2.40;;
18881;SDS011;9573;50.948;11.600;2023-07-16T09:29:16;9.48;;;2.30;;
18881;SDS011;9573;50.948;11.600;2023-07-16T09:31:53;8.73;;;2.50;;
18881;SDS011;9573;50.948;11.600;2023-07-16T09:34:21;7.60;;;1.98;;
18881;SDS011;9573;50.948;11.600;2023-07-16T09:36:48;7.55;;;2.25;;
18881;SDS011;9573;50.948;11.600;2023-07-16T09:39:16;8.38;;;2.28;;
18881;SDS011;9573;50.948;11.600;2023-07-16T09:41:45;6.75;;;2.30;;
18881;SDS011;9573;50.948;11.600;2023-07-16T09:44:13;6.82;;;2.20;;
18881;SDS011;9573;50.948;11.600;2023-07-16T09:46:42;8.95;;;2.40;;
18881;SDS011;9573;50.948;11.600;2023-07-16T09:49:10;4.15;;;2.10;;
18881;SDS011;9573;50.948;11.600;2023-07-16T09:51:38;8.13;;;2.10;;
18881;SDS011;9573;50.948;11.600;2023-07-16T09:54:06;8.10;;;2.30;;
18881;SDS011;9573;50.948;11.600;2023-07-16T09:56:34;3.92;;;1.98;;
18881;SDS011;9573;50.948;11.600;2023-07-16T09:59:05;5.78;;;2.30;;
18881;SDS011;9573;50.948;11.600;2023-07-16T10:01:38;6.53;;;2.08;;
18881;SDS011;9573;50.948;11.600;2023-07-16T10:04:11;7.95;;;2.45;;
18881;SDS011;9573;50.948;11.600;2023-07-16T10:06:49;9.57;;;2.55;;
18881;SDS011;9573;50.948;11.600;2023-07-16T10:09:34;7.72;;;2.22;;
18881;SDS011;9573;50.948;11.600;2023-07-16T10:12:12;6.53;;;2.25;;
18881;SDS011;9573;50.948;11.600;2023-07-16T10:14:42;7.75;;;2.47;;
18881;SDS011;9573;50.948;11.600;2023-07-16T10:17:14;8.55;;;2.30;;
18881;SDS011;9573;50.948;11.600;2023-07-16T10:22:37;5.90;;;2.08;;
18881;SDS011;9573;50.948;11.600;2023-07-16T10:25:07;8.43;;;2.10;;
18881;SDS011;9573;50.948;11.600;2023-07-16T10:27:36;7.38;;;2.30;;
18881;SDS011;9573;50.948;11.600;2023-07-16T10:30:04;5.97;;;2.50;;
18881;SDS011;9573;50.948;11.600;2023-07-16T10:32:33;7.90;;;2.25;;
18881;SDS011;9573;50.948;11.600;2023-07-16T10:35:00;6.57;;;2.20;;
18881;SDS011;9573;50.948;11.600;2023-07-16T10:37:30;6.80;;;2.10;;
18881;SDS011;9573;50.948;11.600;2023-07-16T10:39:58;4.03;;;2.10;;
18881;SDS011;9573;50.948;11.600;2023-07-16T10:42:42;7.03;;;2.17;;
18881;SDS011;9573;50.948;11.600;2023-07-16T10:45:11;8.68;;;2.42;;
18881;SDS011;9573;50.948;11.600;2023-07-16T10:47:40;6.20;;;2.60;;
18881;SDS011;9573;50.948;11.600;2023-07-16T10:50:18;6.22;;;2.35;;
18881;SDS011;9573;50.948;11.600;2023-07-16T10:52:46;7.90;;;2.38;;
18881;SDS011;9573;50.948;11.600;2023-07-16T10:55:17;7.15;;;2.67;;
18881;SDS011;9573;50.948;11.600;2023-07-16T10:57:46;6.03;;;2.28;;
18881;SDS011;9573;50.948;11.600;2023-07-16T11:00:14;5.50;;;2.35;;
18881;SDS011;9573;50.948;11.600;2023-07-16T11:02:42;9.88;;;2.28;;
18881;SDS011;9573;50.948;11.600;2023-07-16T11:05:11;5.55;;;2.60;;
18881;SDS011;9573;50.948;11.600;2023-07-16T11:07:42;10.75;;;2.80;;
18881;SDS011;9573;50.948;11.600;2023-07-16T11:10:10;8.32;;;2.50;;
18881;SDS011;9573;50.948;11.600;2023-07-16T11:12:37;9.18;;;2.78;;
18881;SDS011;9573;50.948;11.600;2023-07-16T11:15:07;7.30;;;2.50;;
18881;SDS011;9573;50.948;11.600;2023-07-16T11:17:36;7.32;;;2.58;;
18881;SDS011;9573;50.948;11.600;2023-07-16T11:20:06;6.72;;;2.67;;
18881;SDS011;9573;50.948;11.600;2023-07-16T11:22:36;7.15;;;3.00;;
18881;SDS011;9573;50.948;11.600;2023-07-16T11:25:10;5.28;;;2.17;;
18881;SDS011;9573;50.948;11.600;2023-07-16T11:27:40;7.13;;;2.40;;
18881;SDS011;9573;50.948;11.600;2023-07-16T11:30:09;7.75;;;2.60;;
18881;SDS011;9573;50.948;11.600;2023-07-16T11:32:41;10.18;;;2.75;;
18881;SDS011;9573;50.948;11.600;2023-07-16T11:35:11;8.35;;;2.80;;
18881;SDS011;9573;50.948;11.600;2023-07-16T11:37:42;7.63;;;2.70;;
18881;SDS011;9573;50.948;11.600;2023-07-16T11:40:14;8.82;;;2.88;;
18881;SDS011;9573;50.948;11.600;2023-07-16T11:42:42;7.22;;;2.42;;
18881;SDS011;9573;50.948;11.600;2023-07-16T11:45:16;7.38;;;2.50;;
18881;SDS011;9573;50.948;11.600;2023-07-16T11:47:45;10.27;;;2.90;;
18881;SDS011;9573;50.948;11.600;2023-07-16T11:50:12;9.68;;;3.13;;
18881;SDS011;9573;50.948;11.600;2023-07-16T11:52:40;7.22;;;2.80;;
18881;SDS011;9573;50.948;11.600;2023-07-16T11:55:07;8.90;;;2.92;;
18881;SDS011;9573;50.948;11.600;2023-07-16T11:57:34;8.48;;;2.97;;
18881;SDS011;9573;50.948;11.600;2023-07-16T12:00:02;9.05;;;3.00;;
18881;SDS011;9573;50.948;11.600;2023-07-16T12:02:33;14.30;;;2.92;;
18881;SDS011;9573;50.948;11.600;2023-07-16T12:05:00;6.80;;;2.80;;
18881;SDS011;9573;50.948;11.600;2023-07-16T12:07:31;7.75;;;2.70;;
18881;SDS011;9573;50.948;11.600;2023-07-16T12:10:00;10.23;;;2.80;;
18881;SDS011;9573;50.948;11.600;2023-07-16T12:12:28;8.57;;;2.75;;
18881;SDS011;9573;50.948;11.600;2023-07-16T12:14:55;5.97;;;2.80;;
18881;SDS011;9573;50.948;11.600;2023-07-16T12:17:22;9.75;;;2.75;;
18881;SDS011;9573;50.948;11.600;2023-07-16T12:19:51;7.30;;;2.60;;
18881;SDS011;9573;50.948;11.600;2023-07-16T12:22:18;9.20;;;2.83;;
18881;SDS011;9573;50.948;11.600;2023-07-16T12:24:46;8.75;;;3.03;;
18881;SDS011;9573;50.948;11.600;2023-07-16T12:27:13;8.52;;;2.88;;
18881;SDS011;9573;50.948;11.600;2023-07-16T12:29:41;9.13;;;3.03;;
18881;SDS011;9573;50.948;11.600;2023-07-16T12:32:08;9.55;;;2.47;;
18881;SDS011;9573;50.948;11.600;2023-07-16T12:34:36;11.82;;;2.90;;
18881;SDS011;9573;50.948;11.600;2023-07-16T12:37:04;7.75;;;2.83;;
18881;SDS011;9573;50.948;11.600;2023-07-16T12:39:32;11.75;;;3.25;;
18881;SDS011;9573;50.948;11.600;2023-07-16T12:41:59;7.35;;;2.90;;
18881;SDS011;9573;50.948;11.600;2023-07-16T12:44:26;9.43;;;2.90;;
18881;SDS011;9573;50.948;11.600;2023-07-16T12:46:53;6.05;;;2.63;;
18881;SDS011;9573;50.948;11.600;2023-07-16T12:49:20;4.05;;;2.67;;
18881;SDS011;9573;50.948;11.600;2023-07-16T12:51:47;9.38;;;2.95;;
18881;SDS011;9573;50.948;11.600;2023-07-16T12:54:16;5.07;;;2.75;;
18881;SDS011;9573;50.948;11.600;2023-07-16T12:56:43;6.28;;;2.70;;
18881;SDS011;9573;50.948;11.600;2023-07-16T12:59:10;7.75;;;2.83;;
18881;SDS011;9573;50.948;11.600;2023-07-16T13:01:37;6.45;;;2.75;;
18881;SDS011;9573;50.948;11.600;2023-07-16T13:04:04;5.97;;;2.67;;
18881;SDS011;9573;50.948;11.600;2023-07-16T13:06:31;7.57;;;2.80;;
18881;SDS011;9573;50.948;11.600;2023-07-16T13:08:58;10.48;;;2.90;;
18881;SDS011;9573;50.948;11.600;2023-07-16T13:11:28;8.48;;;3.10;;
18881;SDS011;9573;50.948;11.600;2023-07-16T13:13:56;8.38;;;2.92;;
18881;SDS011;9573;50.948;11.600;2023-07-16T13:16:23;11.30;;;3.03;;
18881;SDS011;9573;50.948;11.600;2023-07-16T13:18:51;6.40;;;2.10;;
18881;SDS011;9573;50.948;11.600;2023-07-16T13:21:18;8.15;;;2.80;;
18881;SDS011;9573;50.948;11.600;2023-07-16T13:23:45;8.65;;;2.80;;
18881;SDS011;9573;50.948;11.600;2023-07-16T13:26:12;10.10;;;3.17;;
18881;SDS011;9573;50.948;11.600;2023-07-16T13:28:41;7.95;;;3.05;;
18881;SDS011;9573;50.948;11.600;2023-07-16T13:31:08;11.68;;;3.38;;
18881;SDS011;9573;50.948;11.600;2023-07-16T13:33:35;12.35;;;3.60;;
18881;SDS011;9573;50.948;11.600;2023-07-16T13:36:02;11.95;;;3.20;;
18881;SDS011;9573;50.948;11.600;2023-07-16T13:38:29;13.05;;;3.10;;
18881;SDS011;9573;50.948;11.600;2023-07-16T13:40:56;11.20;;;3.17;;
18881;SDS011;9573;50.948;11.600;2023-07-16T13:43:23;6.38;;;2.80;;
18881;SDS011;9573;50.948;11.600;2023-07-16T13:45:52;11.40;;;3.08;;
18881;SDS011;9573;50.948;11.600;2023-07-16T13:48:19;9.88;;;3.30;;
18881;SDS011;9573;50.948;11.600;2023-07-16T13:50:46;10.30;;;3.05;;
18881;SDS011;9573;50.948;11.600;2023-07-16T13:53:13;9.05;;;3.10;;
18881;SDS011;9573;50.948;11.600;2023-07-16T13:55:41;8.40;;;2.90;;
18881;SDS011;9573;50.948;11.600;2023-07-16T13:58:09;7.90;;;2.90;;
18881;SDS011;9573;50.948;11.600;2023-07-16T14:00:36;9.80;;;3.28;;
18881;SDS011;9573;50.948;11.600;2023-07-16T14:03:04;14.48;;;3.53;;
18881;SDS011;9573;50.948;11.600;2023-07-16T14:05:32;11.98;;;3.15;;
18881;SDS011;9573;50.948;11.600;2023-07-16T14:08:03;11.48;;;3.30;;
18881;SDS011;9573;50.948;11.600;2023-07-16T14:10:30;10.88;;;3.17;;
18881;SDS011;9573;50.948;11.600;2023-07-16T14:12:58;10.07;;;3.13;;
18881;SDS011;9573;50.948;11.600;2023-07-16T14:15:25;12.88;;;3.45;;
18881;SDS011;9573;50.948;11.600;2023-07-16T14:17:52;9.98;;;2.80;;
18881;SDS011;9573;50.948;11.600;2023-07-16T14:20:20;11.95;;;2.80;;
18881;SDS011;9573;50.948;11.600;2023-07-16T14:22:47;9.13;;;3.10;;
18881;SDS011;9573;50.948;11.600;2023-07-16T14:25:15;8.98;;;2.85;;
18881;SDS011;9573;50.948;11.600;2023-07-16T14:27:43;12.40;;;3.22;;
18881;SDS011;9573;50.948;11.600;2023-07-16T14:30:10;10.32;;;3.10;;
18881;SDS011;9573;50.948;11.600;2023-07-16T14:32:37;9.55;;;3.03;;
18881;SDS011;9573;50.948;11.600;2023-07-16T14:35:05;11.77;;;3.20;;
18881;SDS011;9573;50.948;11.600;2023-07-16T14:37:34;13.45;;;3.40;;
18881;SDS011;9573;50.948;11.600;2023-07-16T14:40:01;8.35;;;3.20;;
18881;SDS011;9573;50.948;11.600;2023-07-16T14:42:30;12.68;;;3.45;;
18881;SDS011;9573;50.948;11.600;2023-07-16T14:44:57;9.90;;;3.60;;
18881;SDS011;9573;50.948;11.600;2023-07-16T14:47:25;8.27;;;3.00;;
18881;SDS011;9573;50.948;11.600;2023-07-16T14:49:52;6.60;;;2.97;;
18881;SDS011;9573;50.948;11.600;2023-07-16T14:52:19;9.90;;;3.17;;
18881;SDS011;9573;50.948;11.600;2023-07-16T14:54:48;10.82;;;3.38;;
18881;SDS011;9573;50.948;11.600;2023-07-16T14:57:15;14.25;;;3.47;;